Time;durP1;ratioP1;P1;durP2;ratioP2;P2;SDS_P1;SDS_P2;PMS_P1;PMS_P2;Temp;Humidity;BMP_temperature;BMP_pressure;BME280_temperature;BME280_humidity;BME280_pressure;Samples;Min_cycle;Max_cycle;Signal;HPM_P1;HPM_P2
2023/01/21 00:02:14;;;;;;;9.57;5.47;;;;;;;8.74;77.99;102537.69;5006161;28;20042;-76
2023/01/21 00:04:43;;;;;;;10.82;5.82;;;;;;;8.77;77.81;102535.28;5007461;28;20507;-76
2023/01/21 00:07:12;;;;;;;12.38;6.57;;;;;;;8.80;77.38;102530.34;5009048;28;20068;-75
2023/01/21 00:09:42;;;;;;;9.98;5.72;;;;;;;8.75;75.94;102532.63;4997487;28;20061;-75
2023/01/21 00:12:11;;;;;;;10.60;5.90;;;;;;;8.74;75.71;102527.34;5007664;28;20050;-76
2023/01/21 00:14:40;;;;;;;9.05;5.47;;;;;;;8.69;76.58;102526.16;5007180;28;20140;-73
2023/01/21 00:17:08;;;;;;;10.95;6.07;;;;;;;8.65;77.57;102524.19;5005326;28;20130;-76
2023/01/21 00:19:37;;;;;;;11.63;5.50;;;;;;;8.60;78.52;102522.19;5008110;28;20041;-76
2023/01/21 00:22:06;;;;;;;11.57;5.50;;;;;;;8.50;77.03;102522.38;5007505;28;20041;-75
2023/01/21 00:24:34;;;;;;;8.48;5.45;;;;;;;8.41;77.95;102510.53;5008153;28;20112;-76
2023/01/21 00:27:05;;;;;;;11.23;5.60;;;;;;;8.35;76.91;102518.75;5005744;28;20506;-76
2023/01/21 00:29:34;;;;;;;13.60;5.95;;;;;;;8.22;77.78;102516.13;5008304;28;20119;-75
2023/01/21 00:32:02;;;;;;;10.50;5.53;;;;;;;8.10;78.79;102523.94;5008628;28;20534;-73
2023/01/21 00:34:31;;;;;;;12.90;5.78;;;;;;;7.88;80.29;102527.63;5007885;28;20384;-73
2023/01/21 00:37:00;;;;;;;13.75;5.35;;;;;;;7.74;81.90;102529.25;5004123;28;20137;-73
2023/01/21 00:39:28;;;;;;;10.85;5.15;;;;;;;7.63;82.94;102526.69;5006255;28;20057;-72
2023/01/21 00:41:57;;;;;;;9.90;4.65;;;;;;;7.48;83.70;102522.28;5005318;28;20048;-72
2023/01/21 00:44:27;;;;;;;10.55;4.28;;;;;;;7.36;83.68;102525.69;5003822;28;20054;-73
2023/01/21 00:46:56;;;;;;;11.07;4.75;;;;;;;7.27;85.37;102520.78;5004098;28;20041;-73
2023/01/21 00:49:25;;;;;;;25.90;12.40;;;;;;;7.19;89.26;102522.78;5000408;28;20049;-72
2023/01/21 00:51:53;;;;;;;8.73;4.78;;;;;;;7.13;95.23;102522.38;5007013;28;20482;-76
2023/01/21 00:54:22;;;;;;;10.10;4.50;;;;;;;7.03;92.06;102518.25;5009630;28;20050;-75
2023/01/21 00:56:51;;;;;;;10.18;4.32;;;;;;;7.00;92.98;102524.84;4999757;28;20058;-76
2023/01/21 00:59:19;;;;;;;7.45;4.18;;;;;;;6.96;92.20;102527.97;4977133;28;20684;-77
2023/01/21 01:01:49;;;;;;;8.00;3.95;;;;;;;6.89;90.90;102527.53;4985619;28;20046;-77
2023/01/21 01:04:18;;;;;;;9.23;4.57;;;;;;;6.81;90.39;102531.22;4984144;28;20061;-77
2023/01/21 01:06:47;;;;;;;9.52;4.43;;;;;;;6.72;90.75;102522.81;4989225;28;20042;-78
2023/01/21 01:09:16;;;;;;;10.13;5.03;;;;;;;6.62;90.92;102523.84;4989801;28;20050;-75
2023/01/21 01:11:45;;;;;;;8.27;4.47;;;;;;;6.56;90.87;102530.19;4988677;28;20054;-77
2023/01/21 01:14:13;;;;;;;8.65;4.10;;;;;;;6.50;92.13;102528.97;4981363;28;20493;-77
2023/01/21 01:16:42;;;;;;;10.00;5.18;;;;;;;6.44;93.53;102528.50;4996653;28;20050;-76
2023/01/21 01:19:13;;;;;;;8.20;4.35;;;;;;;6.41;94.00;102527.38;4981280;28;20042;-78
2023/01/21 01:21:41;;;;;;;8.98;4.35;;;;;;;6.38;94.08;102528.03;4981941;28;20080;-77
2023/01/21 01:24:10;;;;;;;8.57;4.47;;;;;;;6.36;93.16;102527.03;4989538;28;20416;-77
2023/01/21 01:26:39;;;;;;;9.52;4.53;;;;;;;6.35;94.40;102525.25;4983672;28;20573;-77
2023/01/21 01:29:08;;;;;;;6.25;3.60;;;;;;;6.35;94.90;102530.38;4980349;28;20057;-73
2023/01/21 01:31:37;;;;;;;11.05;3.88;;;;;;;6.35;94.40;102519.22;4977333;28;20042;-74
2023/01/21 01:34:05;;;;;;;7.32;3.40;;;;;;;6.36;95.11;102521.00;4989153;28;20452;-74
2023/01/21 01:36:42;;;;;;;7.97;3.63;;;;;;;6.31;95.30;102517.19;4984055;28;20504;-74
2023/01/21 01:39:11;;;;;;;10.68;4.30;;;;;;;6.21;94.75;102511.34;4982976;28;20109;-75
2023/01/21 01:41:39;;;;;;;7.35;4.20;;;;;;;6.13;94.93;102515.00;4997178;28;20705;-74
2023/01/21 01:44:46;;;;;;;9.73;4.57;;;;;;;6.06;95.15;102516.22;4985973;28;20129;-76
2023/01/21 01:47:15;;;;;;;12.57;5.35;;;;;;;6.01;94.73;102511.53;4988850;28;20042;-76
2023/01/21 01:49:44;;;;;;;10.40;5.03;;;;;;;5.95;95.97;102511.94;4981349;28;20409;-77
2023/01/21 01:52:17;;;;;;;7.20;3.90;;;;;;;5.94;96.38;102502.44;4979726;28;20142;-76
2023/01/21 01:54:52;;;;;;;10.23;4.68;;;;;;;5.95;96.50;102506.78;4987627;28;20073;-76
2023/01/21 01:57:28;;;;;;;9.48;4.75;;;;;;;5.93;96.89;102508.31;5001462;28;20062;-76
2023/01/21 01:59:57;;;;;;;12.07;4.82;;;;;;;5.91;96.99;102498.69;4993016;28;20060;-77
2023/01/21 02:02:26;;;;;;;9.88;4.53;;;;;;;5.89;96.03;102503.75;5007538;28;20599;-77
2023/01/21 02:04:58;;;;;;;12.43;5.47;;;;;;;5.79;95.93;102498.66;5000139;28;20049;-76
2023/01/21 02:07:38;;;;;;;10.82;4.47;;;;;;;5.71;96.78;102494.63;5004472;28;20070;-76
2023/01/21 02:10:08;;;;;;;10.00;4.30;;;;;;;5.59;97.16;102495.47;5004169;28;20042;-77
2023/01/21 02:12:40;;;;;;;12.60;4.35;;;;;;;5.51;98.54;102486.28;5007526;28;20527;-76
2023/01/21 02:15:10;;;;;;;7.65;4.10;;;;;;;5.48;98.58;102496.31;4996096;28;20153;-76
2023/01/21 02:17:52;;;;;;;10.65;5.32;;;;;;;5.44;98.90;102489.13;5004482;28;20054;-77
2023/01/21 02:21:04;;;;;;;11.77;4.65;;;;;;;5.42;99.66;102496.72;5006454;28;20053;-77
2023/01/21 02:23:57;;;;;;;9.53;5.23;;;;;;;5.39;99.80;102491.34;4967990;28;20053;-76
2023/01/21 02:27:07;;;;;;;10.55;4.50;;;;;;;5.35;100.00;102494.44;5007766;28;20546;-76
2023/01/21 02:30:08;;;;;;;11.43;4.78;;;;;;;5.37;100.00;102497.16;4941757;28;20042;-78
2023/01/21 02:33:09;;;;;;;12.18;5.22;;;;;;;5.35;100.00;102494.44;5006528;28;20062;-78
2023/01/21 02:35:43;;;;;;;11.07;4.63;;;;;;;5.38;100.00;102488.66;5005538;28;20519;-78
2023/01/21 02:38:21;;;;;;;11.10;5.22;;;;;;;5.38;100.00;102487.00;5013803;28;20046;-77
2023/01/21 02:40:59;;;;;;;11.13;4.88;;;;;;;5.37;99.82;102486.88;5012053;28;20056;-77
2023/01/21 02:43:35;;;;;;;14.18;5.85;;;;;;;5.33;100.00;102484.84;5006759;28;20631;-78
2023/01/21 02:46:13;;;;;;;10.32;5.53;;;;;;;5.32;100.00;102485.63;5010457;28;20042;-77
2023/01/21 02:48:48;;;;;;;11.05;4.90;;;;;;;5.29;100.00;102482.78;5011495;28;20049;-77
2023/01/21 02:51:19;;;;;;;13.90;5.70;;;;;;;5.30;100.00;102480.34;5006768;28;20050;-76
2023/01/21 02:53:49;;;;;;;9.18;4.60;;;;;;;5.32;100.00;102483.06;5011489;28;20141;-77
2023/01/21 02:56:22;;;;;;;11.80;4.50;;;;;;;5.33;100.00;102483.16;5013537;28;20086;-77
2023/01/21 02:58:55;;;;;;;12.40;4.78;;;;;;;5.36;100.00;102485.06;4998189;28;20463;-78
2023/01/21 03:01:37;;;;;;;14.23;6.22;;;;;;;5.37;100.00;102487.75;5009061;28;20049;-77
2023/01/21 03:04:36;;;;;;;12.82;5.30;;;;;;;5.38;100.00;102492.13;5013083;28;20064;-76
2023/01/21 03:07:14;;;;;;;11.13;5.57;;;;;;;5.40;100.00;102489.66;5005701;28;20124;-77
2023/01/21 03:09:42;;;;;;;14.27;6.00;;;;;;;5.38;100.00;102489.56;5007837;28;21375;-74
2023/01/21 03:12:32;;;;;;;14.32;6.28;;;;;;;5.36;100.00;102480.84;5000947;28;20046;-75
2023/01/21 03:17:57;;;;;;;14.77;6.15;;;;;;;5.37;100.00;102476.59;5006914;28;20052;-74
2023/01/21 03:20:31;;;;;;;11.98;5.75;;;;;;;5.36;100.00;102468.00;5006503;28;20641;-74
2023/01/21 03:23:04;;;;;;;17.25;5.68;;;;;;;5.37;100.00;102474.03;5012487;28;20050;-74
2023/01/21 03:25:34;;;;;;;13.73;6.45;;;;;;;5.37;100.00;102463.78;5004109;28;20069;-75
2023/01/21 03:28:07;;;;;;;18.98;6.35;;;;;;;5.38;100.00;102463.91;5009017;28;20050;-74
2023/01/21 03:30:38;;;;;;;17.42;6.53;;;;;;;5.37;100.00;102456.97;5005182;28;20068;-73
2023/01/21 03:33:08;;;;;;;12.38;6.95;;;;;;;5.32;100.00;102447.13;5011939;28;20052;-74
2023/01/21 03:35:42;;;;;;;17.10;6.80;;;;;;;5.37;100.00;102461.22;5010001;28;20045;-75
2023/01/21 03:38:14;;;;;;;19.20;7.03;;;;;;;5.35;100.00;102455.94;5004601;28;20039;-74
2023/01/21 03:40:49;;;;;;;17.50;7.22;;;;;;;5.36;100.00;102454.25;5005051;28;20057;-75
2023/01/21 03:43:17;;;;;;;16.90;7.38;;;;;;;5.30;100.00;102443.53;5011037;28;20814;-76
2023/01/21 03:45:51;;;;;;;17.40;7.60;;;;;;;5.24;100.00;102441.38;5002474;28;20512;-74
2023/01/21 03:48:27;;;;;;;19.98;8.10;;;;;;;5.23;100.00;102447.28;5008499;28;20052;-72
2023/01/21 03:51:03;;;;;;;20.38;7.90;;;;;;;5.24;100.00;102447.44;5011309;28;20049;-73
2023/01/21 03:53:32;;;;;;;14.68;6.68;;;;;;;5.27;100.00;102453.53;5006823;28;20538;-75
2023/01/21 03:56:00;;;;;;;18.08;6.47;;;;;;;5.29;100.00;102440.09;5010755;28;22427;-74
2023/01/21 03:58:29;;;;;;;20.35;8.10;;;;;;;5.30;100.00;102443.53;5010821;28;20053;-72
2023/01/21 04:00:58;;;;;;;22.85;8.32;;;;;;;5.25;100.00;102426.09;5005263;28;20747;-73
2023/01/21 04:03:26;;;;;;;14.13;6.07;;;;;;;5.32;100.00;102429.16;5009497;28;20052;-74
2023/01/21 04:05:56;;;;;;;18.17;6.93;;;;;;;5.31;100.00;102424.78;5007287;28;20054;-73
2023/01/21 04:08:25;;;;;;;15.20;7.35;;;;;;;5.27;100.00;102425.31;5001557;28;20045;-74
2023/01/21 04:10:53;;;;;;;18.70;7.53;;;;;;;5.23;100.00;102419.97;5013068;28;20072;-73
2023/01/21 04:13:22;;;;;;;18.45;6.63;;;;;;;5.20;100.00;102414.59;5004759;28;20046;-74
2023/01/21 04:15:51;;;;;;;22.67;7.90;;;;;;;5.18;100.00;102417.81;5008422;28;20046;-74
2023/01/21 04:18:19;;;;;;;23.25;8.55;;;;;;;5.15;100.00;102409.88;5006492;28;20057;-74
2023/01/21 04:20:48;;;;;;;22.05;7.78;;;;;;;5.14;100.00;102426.06;5009850;28;20046;-74
2023/01/21 04:23:18;;;;;;;15.20;7.05;;;;;;;5.12;100.00;102413.09;5005022;28;20042;-72
2023/01/21 04:25:49;;;;;;;18.05;7.57;;;;;;;5.13;100.00;102419.09;5008463;28;20050;-74
2023/01/21 04:28:18;;;;;;;18.42;7.20;;;;;;;5.16;100.00;102425.38;5009021;28;20049;-80
2023/01/21 04:30:48;;;;;;;17.65;7.13;;;;;;;5.20;100.00;102427.44;4998372;28;20054;-75
2023/01/21 04:33:17;;;;;;;19.23;6.95;;;;;;;5.22;100.00;102427.53;5004946;28;20098;-84
2023/01/21 04:35:47;;;;;;;18.00;7.80;;;;;;;5.26;100.00;102432.13;5009436;28;20049;-75
2023/01/21 04:38:17;;;;;;;15.45;6.88;;;;;;;5.30;100.00;102428.13;5010903;28;20041;-74
2023/01/21 04:40:46;;;;;;;22.10;8.65;;;;;;;5.32;100.00;102424.03;5004265;28;20050;-74
2023/01/21 04:43:15;;;;;;;23.60;6.93;;;;;;;5.32;100.00;102426.59;5009633;28;20044;-75
2023/01/21 04:45:43;;;;;;;14.45;6.50;;;;;;;5.31;100.00;102429.91;4999670;28;20050;-74
2023/01/21 04:48:12;;;;;;;17.00;6.80;;;;;;;5.34;100.00;102430.19;5006156;28;20607;-76
2023/01/21 04:50:40;;;;;;;16.90;7.28;;;;;;;5.34;100.00;102427.59;5009605;28;20061;-76
2023/01/21 04:53:09;;;;;;;15.07;6.30;;;;;;;5.35;100.00;102430.28;5008323;28;20052;-75
2023/01/21 04:55:39;;;;;;;15.63;6.95;;;;;;;5.33;100.00;102426.69;5005552;28;20096;-77
2023/01/21 04:58:08;;;;;;;13.43;6.18;;;;;;;5.33;99.50;102426.69;5009164;28;20062;-76
2023/01/21 05:00:37;;;;;;;19.25;7.20;;;;;;;5.29;98.88;102418.63;5008367;28;20038;-76
2023/01/21 05:03:06;;;;;;;13.32;6.32;;;;;;;5.29;99.30;102413.50;5009187;28;20050;-80
2023/01/21 05:05:34;;;;;;;11.60;5.68;;;;;;;5.29;98.92;102413.50;5009552;28;20046;-77
2023/01/21 05:08:03;;;;;;;18.02;5.72;;;;;;;5.29;99.03;102405.78;5008808;28;20056;-77
2023/01/21 05:10:31;;;;;;;12.65;6.45;;;;;;;5.26;99.71;102403.91;5009431;28;20049;-76
2023/01/21 05:13:02;;;;;;;14.00;5.35;;;;;;;5.25;99.16;102403.00;5009883;28;20050;-76
2023/01/21 05:15:30;;;;;;;17.17;6.45;;;;;;;5.24;99.18;102398.66;5006991;28;20053;-76
2023/01/21 05:17:59;;;;;;;11.50;5.93;;;;;;;5.21;99.04;102398.41;5006742;28;20105;-75
2023/01/21 05:20:28;;;;;;;16.25;6.45;;;;;;;5.22;99.04;102407.00;4994476;28;20046;-76
2023/01/21 05:22:56;;;;;;;13.82;5.90;;;;;;;5.22;99.12;102402.78;5009724;28;20061;-74
2023/01/21 05:25:25;;;;;;;12.80;5.38;;;;;;;5.22;98.82;102404.44;4998284;28;20045;-77
2023/01/21 05:27:54;;;;;;;12.00;4.80;;;;;;;5.22;98.96;102405.34;5008064;28;20057;-76
2023/01/21 05:30:26;;;;;;;14.13;6.28;;;;;;;5.24;99.44;102406.38;5003117;28;20672;-75
2023/01/21 05:32:55;;;;;;;12.38;5.13;;;;;;;5.25;99.27;102395.31;5010801;28;20045;-78
2023/01/21 05:35:24;;;;;;;13.40;6.05;;;;;;;5.24;99.60;102390.97;5008000;28;20076;-74
2023/01/21 05:37:53;;;;;;;11.32;5.45;;;;;;;5.25;99.01;102390.19;5003155;28;20054;-73
2023/01/21 05:40:22;;;;;;;14.98;6.10;;;;;;;5.28;99.15;102398.88;5004768;28;20057;-73
2023/01/21 05:42:50;;;;;;;15.55;6.30;;;;;;;5.26;99.49;102396.19;5007525;28;20042;-72
2023/01/21 05:45:19;;;;;;;13.82;5.57;;;;;;;5.26;99.68;102398.75;5006408;28;20057;-72
2023/01/21 05:47:49;;;;;;;13.90;6.95;;;;;;;5.27;98.99;102397.09;5006314;28;20587;-73
2023/01/21 05:50:18;;;;;;;12.90;6.25;;;;;;;5.27;99.25;102397.09;5006521;28;20045;-73
2023/01/21 05:52:46;;;;;;;12.98;6.95;;;;;;;5.29;98.95;102393.88;4999587;28;20496;-72
2023/01/21 05:55:15;;;;;;;12.63;5.43;;;;;;;5.29;97.65;102393.88;5006319;28;20570;-71
2023/01/21 05:57:44;;;;;;;14.40;6.00;;;;;;;5.29;97.04;102392.97;5003519;28;20077;-73
2023/01/21 06:00:13;;;;;;;11.95;5.90;;;;;;;5.31;97.92;102393.97;5001358;28;20053;-71
2023/01/21 06:02:42;;;;;;;12.40;5.68;;;;;;;5.30;98.13;102393.09;5004500;28;20053;-72
2023/01/21 06:05:12;;;;;;;11.98;5.88;;;;;;;5.31;98.47;102399.13;5006170;28;20108;-72
2023/01/21 06:07:41;;;;;;;13.88;6.68;;;;;;;5.32;97.94;102409.50;5008838;28;20050;-72
2023/01/21 06:10:10;;;;;;;19.00;5.70;;;;;;;5.32;98.06;102408.63;5013653;28;20050;-73
2023/01/21 06:12:39;;;;;;;16.40;5.55;;;;;;;5.29;96.77;102410.94;5012973;28;20046;-74
2023/01/21 06:15:08;;;;;;;14.75;6.38;;;;;;;5.29;96.78;102405.78;5007925;28;20046;-74
2023/01/21 06:17:40;;;;;;;14.40;6.53;;;;;;;5.31;97.99;102402.56;5018203;28;20076;-73
2023/01/21 06:20:12;;;;;;;15.30;5.65;;;;;;;5.32;97.88;102400.91;5006783;28;20103;-73
2023/01/21 06:22:40;;;;;;;9.93;5.32;;;;;;;5.31;97.97;102400.00;5014000;28;20054;-73
2023/01/21 06:25:09;;;;;;;14.93;6.50;;;;;;;5.33;97.33;102402.69;5012284;28;20052;-72
2023/01/21 06:27:39;;;;;;;14.18;6.15;;;;;;;5.34;97.32;102394.25;5009183;28;20605;-73
2023/01/21 06:30:09;;;;;;;17.00;6.55;;;;;;;5.35;96.89;102413.97;5013025;28;20050;-73
2023/01/21 06:32:38;;;;;;;12.55;5.32;;;;;;;5.28;96.12;102388.63;5012611;28;20046;-72
2023/01/21 06:35:07;;;;;;;13.90;6.15;;;;;;;5.36;95.04;102403.84;5009590;28;20050;-72
2023/01/21 06:37:37;;;;;;;13.88;5.93;;;;;;;5.38;94.50;102409.06;5004481;28;20113;-73
2023/01/21 06:40:07;;;;;;;13.10;6.28;;;;;;;5.38;94.98;102406.50;5002831;28;20064;-73
2023/01/21 06:42:36;;;;;;;11.38;5.25;;;;;;;5.36;94.80;102398.72;5012976;28;20081;-73
2023/01/21 06:45:05;;;;;;;10.52;5.30;;;;;;;5.36;94.73;102391.00;5010006;28;20046;-73
2023/01/21 06:47:34;;;;;;;12.07;5.38;;;;;;;5.36;94.14;102400.34;5006597;28;20069;-72
2023/01/21 06:50:02;;;;;;;11.68;5.10;;;;;;;5.34;94.24;102396.81;5011781;28;20578;-73
2023/01/21 06:52:31;;;;;;;13.85;6.07;;;;;;;5.34;94.98;102396.81;5002370;28;20130;-73
2023/01/21 06:55:01;;;;;;;13.73;6.13;;;;;;;5.33;95.34;102401.03;5005438;28;20554;-70
2023/01/21 06:57:30;;;;;;;12.18;5.88;;;;;;;5.33;95.94;102401.03;5006413;28;20058;-71
2023/01/21 06:59:58;;;;;;;14.40;6.50;;;;;;;5.33;95.88;102402.69;5007331;28;20728;-71
2023/01/21 07:02:27;;;;;;;13.15;6.22;;;;;;;5.30;96.41;102397.34;5012412;28;20488;-72
2023/01/21 07:04:55;;;;;;;14.98;6.57;;;;;;;5.28;97.06;102401.47;5009496;28;20061;-72
2023/01/21 07:07:24;;;;;;;19.60;7.55;;;;;;;5.26;96.67;102385.94;5012074;28;20661;-72
2023/01/21 07:09:53;;;;;;;14.32;6.85;;;;;;;5.25;96.77;102392.75;5006260;28;20492;-72
2023/01/21 07:12:23;;;;;;;12.57;6.38;;;;;;;5.22;97.12;102389.03;5009097;28;20491;-72
2023/01/21 07:14:52;;;;;;;13.68;5.93;;;;;;;5.23;96.99;102394.28;5007544;28;20056;-73
2023/01/21 07:17:21;;;;;;;14.90;6.32;;;;;;;5.20;97.44;102391.50;5007662;28;20056;-74
2023/01/21 07:19:50;;;;;;;15.45;6.25;;;;;;;5.18;97.78;102387.91;5010081;28;20050;-71
2023/01/21 07:22:19;;;;;;;16.67;5.95;;;;;;;5.18;98.12;102392.16;5004083;28;20495;-73
2023/01/21 07:24:47;;;;;;;14.90;5.82;;;;;;;5.17;98.71;102398.06;5010278;28;20050;-71
2023/01/21 07:27:16;;;;;;;18.38;7.35;;;;;;;5.12;98.12;102395.13;5009920;28;20049;-74
2023/01/21 07:29:46;;;;;;;11.50;5.78;;;;;;;5.10;98.21;102399.25;5008934;28;20042;-73
2023/01/21 07:32:15;;;;;;;11.70;6.68;;;;;;;5.11;98.96;102401.06;5011813;28;20058;-73
2023/01/21 07:34:43;;;;;;;15.05;6.43;;;;;;;5.09;98.49;102397.47;5012667;28;20057;-76
2023/01/21 07:37:12;;;;;;;15.52;7.05;;;;;;;5.07;98.69;102393.00;5013048;28;20129;-78
2023/01/21 07:39:40;;;;;;;16.95;7.45;;;;;;;5.06;99.84;102397.22;5007257;28;20045;-74
2023/01/21 07:42:10;;;;;;;15.43;6.85;;;;;;;5.08;99.67;102394.78;5008262;28;20049;-73
2023/01/21 07:44:38;;;;;;;14.48;7.25;;;;;;;5.07;99.37;102400.69;5011922;28;20046;-78
2023/01/21 07:47:09;;;;;;;17.77;7.15;;;;;;;5.02;99.23;102398.66;4999286;28;20054;-76
2023/01/21 07:49:37;;;;;;;14.50;6.10;;;;;;;5.02;99.57;102400.34;5008885;28;20045;-75
2023/01/21 07:52:06;;;;;;;14.73;6.35;;;;;;;5.03;100.00;102400.44;5010088;28;20138;-76
2023/01/21 07:54:44;;;;;;;17.83;6.45;;;;;;;5.03;99.88;102392.72;5009985;28;20490;-76
2023/01/21 07:57:19;;;;;;;15.73;6.57;;;;;;;5.04;100.00;102389.41;5004596;28;20440;-76
2023/01/21 07:59:48;;;;;;;15.43;6.45;;;;;;;5.05;100.00;102392.88;5000072;28;20058;-77
2023/01/21 08:02:18;;;;;;;13.00;6.25;;;;;;;5.05;99.20;102390.31;5010130;28;20098;-76
2023/01/21 08:04:47;;;;;;;15.02;6.32;;;;;;;5.05;99.41;102385.16;5006891;28;20530;-75
2023/01/21 08:07:15;;;;;;;14.38;6.10;;;;;;;5.07;99.23;102373.34;5006389;28;20786;-75
2023/01/21 08:09:44;;;;;;;12.48;5.88;;;;;;;5.07;99.31;102368.22;5011117;28;20459;-75
2023/01/21 08:12:12;;;;;;;17.55;6.05;;;;;;;5.09;99.15;102360.66;5003507;28;20069;-75
2023/01/21 08:14:41;;;;;;;16.55;7.00;;;;;;;5.08;99.71;102370.00;5011174;28;20054;-76
2023/01/21 08:17:09;;;;;;;12.52;6.07;;;;;;;4.99;98.82;102353.91;5004150;28;20049;-76
2023/01/21 08:19:39;;;;;;;15.82;5.90;;;;;;;5.01;97.85;102372.88;5002600;28;20058;-76
2023/01/21 08:22:08;;;;;;;15.40;6.28;;;;;;;5.00;98.43;102378.78;5008706;28;20046;-76
2023/01/21 08:24:36;;;;;;;14.98;6.10;;;;;;;5.00;98.99;102381.34;5011010;28;20511;-75
2023/01/21 08:27:05;;;;;;;14.07;6.25;;;;;;;5.01;99.58;102385.69;5007881;28;20049;-76
2023/01/21 08:29:34;;;;;;;14.43;5.65;;;;;;;5.03;99.71;102381.59;5007331;28;20097;-75
2023/01/21 08:32:02;;;;;;;12.32;6.25;;;;;;;5.06;99.76;102386.94;5008846;28;20042;-76
2023/01/21 08:34:31;;;;;;;11.13;5.13;;;;;;;5.07;99.06;102381.06;5005820;28;20066;-75
2023/01/21 08:37:01;;;;;;;14.57;6.65;;;;;;;5.09;98.36;102374.38;5005455;28;20042;-76
2023/01/21 08:39:30;;;;;;;15.43;5.88;;;;;;;5.11;98.51;102377.03;5007204;28;20125;-76
2023/01/21 08:42:05;;;;;;;12.45;5.30;;;;;;;5.10;97.81;102373.59;5007917;28;20105;-76
2023/01/21 08:44:34;;;;;;;11.95;5.85;;;;;;;5.09;97.79;102376.94;5009892;28;20046;-75
2023/01/21 08:47:03;;;;;;;15.95;6.43;;;;;;;5.09;97.66;102369.25;5010132;28;20042;-77
2023/01/21 08:49:32;;;;;;;13.52;6.30;;;;;;;5.03;96.95;102368.75;5010929;28;20408;-73
2023/01/21 08:52:02;;;;;;;15.18;4.95;;;;;;;4.97;98.21;102366.63;5008929;28;20050;-75
2023/01/21 08:54:30;;;;;;;13.30;5.43;;;;;;;4.98;98.53;102362.38;5002035;28;20061;-76
2023/01/21 08:57:06;;;;;;;12.35;5.30;;;;;;;4.97;97.41;102358.94;5005417;28;20500;-76
2023/01/21 08:59:34;;;;;;;11.55;4.85;;;;;;;4.97;96.89;102360.56;5003236;28;20521;-76
2023/01/21 09:02:03;;;;;;;10.90;5.88;;;;;;;4.98;97.40;102362.38;5009652;28;20049;-75
2023/01/21 09:04:31;;;;;;;12.32;5.05;;;;;;;4.99;97.70;102364.16;5003863;28;20567;-76
2023/01/21 09:07:02;;;;;;;11.60;5.30;;;;;;;5.00;98.63;102365.97;5009959;28;20121;-76
2023/01/21 09:09:31;;;;;;;12.15;5.43;;;;;;;5.02;97.39;102366.97;5003919;28;20729;-76
2023/01/21 09:11:59;;;;;;;15.55;5.93;;;;;;;5.02;96.19;102364.41;5000739;28;20045;-75
2023/01/21 09:14:29;;;;;;;12.73;5.55;;;;;;;5.01;95.82;102357.47;5009043;28;20053;-75
2023/01/21 09:16:58;;;;;;;11.27;5.20;;;;;;;5.00;96.54;102359.16;5009297;28;20042;-75
2023/01/21 09:19:26;;;;;;;10.43;4.68;;;;;;;4.99;98.12;102356.47;5007858;28;20058;-76
2023/01/21 09:21:55;;;;;;;13.48;5.32;;;;;;;5.00;97.77;102351.47;5005650;28;20088;-75
2023/01/21 09:24:25;;;;;;;15.80;6.82;;;;;;;5.01;98.13;102352.34;5007504;28;20046;-76
2023/01/21 09:26:54;;;;;;;15.82;6.43;;;;;;;5.04;98.19;102360.31;5010393;28;20104;-75
2023/01/21 09:29:22;;;;;;;18.15;6.53;;;;;;;4.99;98.01;102352.25;5007784;28;20056;-76
2023/01/21 09:31:51;;;;;;;16.80;6.55;;;;;;;5.04;98.53;102363.75;4998688;28;20830;-76
2023/01/21 09:34:22;;;;;;;16.40;7.68;;;;;;;5.04;98.65;102360.31;5009377;28;20058;-76
2023/01/21 09:36:50;;;;;;;18.48;8.07;;;;;;;5.01;98.12;102357.47;5001392;28;20095;-76
2023/01/21 09:39:19;;;;;;;23.38;8.05;;;;;;;5.00;97.81;102350.56;5010885;28;20046;-75
2023/01/21 09:41:52;;;;;;;19.38;7.22;;;;;;;4.98;97.24;102357.25;5001830;28;20050;-75
2023/01/21 09:44:25;;;;;;;21.48;7.90;;;;;;;4.82;98.25;102334.66;5009460;28;20073;-75
2023/01/21 09:46:59;;;;;;;20.83;8.32;;;;;;;4.87;98.11;102340.13;5003082;28;20454;-77
2023/01/21 09:49:32;;;;;;;17.23;7.47;;;;;;;4.82;98.38;102335.53;5009220;28;20050;-76
2023/01/21 09:52:09;;;;;;;22.80;8.05;;;;;;;4.79;99.61;102343.00;5008157;28;20053;-75
2023/01/21 09:54:39;;;;;;;17.52;8.40;;;;;;;4.77;99.74;102339.41;5003421;28;20108;-75
2023/01/21 09:57:44;;;;;;;17.17;7.63;;;;;;;4.75;100.00;102327.25;5006177;28;20082;-76
2023/01/21 10:00:36;;;;;;;20.17;8.23;;;;;;;4.77;99.56;102331.72;4997433;28;20471;-75
2023/01/21 10:03:18;;;;;;;19.90;8.27;;;;;;;4.78;100.00;102338.63;5006542;28;20514;-76
2023/01/21 10:06:11;;;;;;;16.10;7.50;;;;;;;4.82;100.00;102334.66;5008056;28;20037;-75
2023/01/21 10:08:53;;;;;;;19.35;7.53;;;;;;;4.88;100.00;102341.91;4963015;28;20061;-76
2023/01/21 10:11:34;;;;;;;13.02;5.55;;;;;;;4.92;99.67;102347.41;5009271;28;20674;-76
2023/01/21 10:14:21;;;;;;;14.00;6.20;;;;;;;4.95;100.00;102357.03;5001360;28;20033;-76
2023/01/21 10:16:57;;;;;;;15.50;6.22;;;;;;;4.95;99.84;102351.91;5007813;28;20054;-76
2023/01/21 10:19:33;;;;;;;18.58;8.10;;;;;;;4.96;99.80;102354.56;5001141;28;20697;-77
2023/01/21 10:22:06;;;;;;;16.30;7.07;;;;;;;4.95;99.91;102347.66;5006354;28;20381;-75
2023/01/21 10:24:39;;;;;;;18.60;7.68;;;;;;;4.97;99.92;102353.81;5007713;28;20053;-75
2023/01/21 10:27:15;;;;;;;21.52;7.95;;;;;;;4.97;99.76;102340.06;5008218;28;20095;-75
2023/01/21 10:29:48;;;;;;;17.77;8.02;;;;;;;4.98;98.45;102344.44;5004596;28;20077;-75
2023/01/21 10:32:21;;;;;;;19.42;7.50;;;;;;;4.95;98.63;102346.75;5004942;28;20065;-75
2023/01/21 10:34:52;;;;;;;19.60;7.30;;;;;;;4.91;99.15;102361.00;5006128;28;20058;-76
2023/01/21 10:37:31;;;;;;;18.45;7.18;;;;;;;4.90;98.86;102354.09;5004348;28;20042;-76
2023/01/21 10:40:10;;;;;;;18.98;8.43;;;;;;;4.94;99.71;102357.78;5007682;28;21221;-76
2023/01/21 10:43:04;;;;;;;18.45;7.57;;;;;;;4.91;98.97;102345.63;5009282;28;20073;-75
2023/01/21 10:45:44;;;;;;;19.55;7.93;;;;;;;4.91;99.71;102349.84;4982738;28;20053;-76
2023/01/21 10:48:20;;;;;;;21.00;9.20;;;;;;;4.94;100.00;102347.53;5002820;28;20046;-75
2023/01/21 10:50:55;;;;;;;17.52;8.00;;;;;;;4.96;100.00;102339.16;5003753;28;20508;-76
2023/01/21 10:53:31;;;;;;;15.93;7.93;;;;;;;4.99;99.37;102338.50;5008028;28;20048;-75
2023/01/21 10:56:13;;;;;;;17.77;7.85;;;;;;;5.01;99.27;102342.97;5010110;28;20443;-76
2023/01/21 10:58:47;;;;;;;19.08;8.55;;;;;;;5.00;99.23;102324.91;5005450;28;20053;-75
2023/01/21 11:01:22;;;;;;;24.42;9.02;;;;;;;4.94;99.62;102324.44;5009694;28;20447;-75
2023/01/21 11:03:53;;;;;;;19.80;8.70;;;;;;;4.92;100.00;102326.00;5012681;28;20499;-75
2023/01/21 11:06:24;;;;;;;16.73;8.23;;;;;;;4.90;100.00;102317.28;5010030;28;20061;-76
2023/01/21 11:08:57;;;;;;;14.88;7.25;;;;;;;4.89;100.00;102320.63;5009260;28;20045;-75
2023/01/21 11:11:28;;;;;;;21.65;8.50;;;;;;;4.82;100.00;102320.16;5011719;28;20137;-76
2023/01/21 11:13:57;;;;;;;21.33;8.02;;;;;;;4.78;100.00;102325.81;5003816;28;20689;-77
2023/01/21 11:16:46;;;;;;;22.08;8.32;;;;;;;4.72;100.00;102324.44;5005376;28;20053;-78
2023/01/21 11:19:16;;;;;;;24.00;9.48;;;;;;;4.61;100.00;102316.81;4999372;28;20718;-76
2023/01/21 11:22:03;;;;;;;18.92;7.82;;;;;;;4.52;100.00;102302.38;5000986;28;20511;-77
2023/01/21 11:24:33;;;;;;;20.88;8.85;;;;;;;4.46;100.00;102304.44;4995653;28;20050;-77
2023/01/21 11:27:02;;;;;;;24.17;8.68;;;;;;;4.42;100.00;102300.72;5004703;28;20149;-76
2023/01/21 11:29:41;;;;;;;18.23;8.05;;;;;;;4.41;100.00;102294.72;5011803;28;20484;-76
2023/01/21 11:32:20;;;;;;;25.17;9.98;;;;;;;4.47;100.00;102291.75;5010536;28;20299;-76
2023/01/21 11:34:50;;;;;;;21.63;8.65;;;;;;;4.53;100.00;102281.09;4997800;28;20050;-75
2023/01/21 11:37:24;;;;;;;23.27;9.45;;;;;;;4.54;100.00;102275.19;5001593;28;20054;-75
2023/01/21 11:39:56;;;;;;;20.38;9.48;;;;;;;4.50;100.00;102258.66;5011659;28;20133;-77
2023/01/21 11:42:25;;;;;;;22.05;9.48;;;;;;;4.46;100.00;102250.63;5008578;28;20433;-76
2023/01/21 11:44:57;;;;;;;24.00;9.55;;;;;;;4.45;100.00;102264.22;5002685;28;20514;-75
2023/01/21 11:47:38;;;;;;;19.77;8.15;;;;;;;4.44;100.00;102270.09;5006112;28;20653;-75
2023/01/21 11:50:17;;;;;;;25.05;10.85;;;;;;;4.44;100.00;102262.41;5007859;28;20953;-76